sensor_id;sensor_type;location;lat;lon;timestamp;temperature;humidity
33011;DHT22;19370;48.562;9.196;2024-01-11T00:02:23;-1.60;99.90
33011;DHT22;19370;48.562;9.196;2024-01-11T00:04:52;-1.60;99.90
33011;DHT22;19370;48.562;9.196;2024-01-11T00:07:21;-1.60;99.90
33011;DHT22;19370;48.562;9.196;2024-01-11T00:09:48;-1.70;99.90
33011;DHT22;19370;48.562;9.196;2024-01-11T00:12:29;-1.70;99.90
33011;DHT22;19370;48.562;9.196;2024-01-11T00:15:02;-1.70;99.90
33011;DHT22;19370;48.562;9.196;2024-01-11T00:17:28;-1.70;99.90
33011;DHT22;19370;48.562;9.196;2024-01-11T00:20:06;-1.80;99.90
33011;DHT22;19370;48.562;9.196;2024-01-11T00:22:36;-1.80;99.90
33011;DHT22;19370;48.562;9.196;2024-01-11T00:25:06;-1.80;99.90
33011;DHT22;19370;48.562;9.196;2024-01-11T00:27:32;-1.80;99.90
33011;DHT22;19370;48.562;9.196;2024-01-11T00:29:58;-1.80;99.90
33011;DHT22;19370;48.562;9.196;2024-01-11T00:32:24;-1.80;99.90
33011;DHT22;19370;48.562;9.196;2024-01-11T00:34:56;-1.80;99.90
33011;DHT22;19370;48.562;9.196;2024-01-11T00:37:25;-1.80;99.90
33011;DHT22;19370;48.562;9.196;2024-01-11T00:40:00;-1.80;99.90
33011;DHT22;19370;48.562;9.196;2024-01-11T00:42:47;-1.80;99.90
33011;DHT22;19370;48.562;9.196;2024-01-11T00:45:26;-1.80;99.90
33011;DHT22;19370;48.562;9.196;2024-01-11T00:48:30;-1.70;99.90
33011;DHT22;19370;48.562;9.196;2024-01-11T00:51:01;-1.80;99.90
33011;DHT22;19370;48.562;9.196;2024-01-11T00:54:01;-1.80;99.90
33011;DHT22;19370;48.562;9.196;2024-01-11T00:56:30;-1.70;99.90
33011;DHT22;19370;48.562;9.196;2024-01-11T00:59:09;-1.80;99.90
33011;DHT22;19370;48.562;9.196;2024-01-11T01:01:53;-1.90;99.90
33011;DHT22;19370;48.562;9.196;2024-01-11T01:04:39;-1.70;99.90
33011;DHT22;19370;48.562;9.196;2024-01-11T01:07:27;-1.80;99.90
33011;DHT22;19370;48.562;9.196;2024-01-11T01:09:56;-1.80;99.90
33011;DHT22;19370;48.562;9.196;2024-01-11T01:12:28;-1.80;99.90
33011;DHT22;19370;48.562;9.196;2024-01-11T01:14:59;-1.90;99.90
33011;DHT22;19370;48.562;9.196;2024-01-11T01:17:25;-1.90;99.90
33011;DHT22;19370;48.562;9.196;2024-01-11T01:19:59;-1.90;99.90
33011;DHT22;19370;48.562;9.196;2024-01-11T01:22:49;-1.90;99.90
33011;DHT22;19370;48.562;9.196;2024-01-11T01:25:32;-1.90;99.90
33011;DHT22;19370;48.562;9.196;2024-01-11T01:28:04;-1.90;99.90
33011;DHT22;19370;48.562;9.196;2024-01-11T01:30:36;-2.00;99.90
33011;DHT22;19370;48.562;9.196;2024-01-11T01:33:12;-1.90;99.90
33011;DHT22;19370;48.562;9.196;2024-01-11T01:35:55;-1.90;99.90
33011;DHT22;19370;48.562;9.196;2024-01-11T01:41:50;-1.90;99.90
33011;DHT22;19370;48.562;9.196;2024-01-11T01:44:25;-2.00;99.90
33011;DHT22;19370;48.562;9.196;2024-01-11T01:47:09;-2.00;99.90
33011;DHT22;19370;48.562;9.196;2024-01-11T01:49:47;-2.00;99.90
33011;DHT22;19370;48.562;9.196;2024-01-11T01:52:14;-2.00;99.90
33011;DHT22;19370;48.562;9.196;2024-01-11T01:54:41;-2.00;99.90
33011;DHT22;19370;48.562;9.196;2024-01-11T01:57:09;-2.10;99.90
33011;DHT22;19370;48.562;9.196;2024-01-11T01:59:43;-2.10;99.90
33011;DHT22;19370;48.562;9.196;2024-01-11T02:02:12;-2.10;99.90
33011;DHT22;19370;48.562;9.196;2024-01-11T02:04:38;-2.00;99.90
33011;DHT22;19370;48.562;9.196;2024-01-11T02:07:04;-1.90;99.90
33011;DHT22;19370;48.562;9.196;2024-01-11T02:09:32;-1.90;99.90
33011;DHT22;19370;48.562;9.196;2024-01-11T02:12:01;-1.90;99.90
33011;DHT22;19370;48.562;9.196;2024-01-11T02:14:33;-1.90;99.90
33011;DHT22;19370;48.562;9.196;2024-01-11T02:17:07;-1.90;99.90
33011;DHT22;19370;48.562;9.196;2024-01-11T02:19:40;-2.00;99.90
33011;DHT22;19370;48.562;9.196;2024-01-11T02:22:24;-2.00;99.90
33011;DHT22;19370;48.562;9.196;2024-01-11T02:25:04;-2.00;99.90
33011;DHT22;19370;48.562;9.196;2024-01-11T02:27:54;-2.00;99.90
33011;DHT22;19370;48.562;9.196;2024-01-11T02:30:39;-2.00;99.90
33011;DHT22;19370;48.562;9.196;2024-01-11T02:33:11;-2.10;99.90
33011;DHT22;19370;48.562;9.196;2024-01-11T02:35:58;-2.10;99.90
33011;DHT22;19370;48.562;9.196;2024-01-11T02:38:34;-2.10;99.90
33011;DHT22;19370;48.562;9.196;2024-01-11T05:46:39;-2.90;99.90
33011;DHT22;19370;48.562;9.196;2024-01-11T05:49:09;-2.80;99.90
33011;DHT22;19370;48.562;9.196;2024-01-11T05:51:41;-2.90;99.90
33011;DHT22;19370;48.562;9.196;2024-01-11T05:54:07;-2.90;99.90
33011;DHT22;19370;48.562;9.196;2024-01-11T05:56:32;-2.90;99.90
33011;DHT22;19370;48.562;9.196;2024-01-11T05:58:58;-2.90;99.90
33011;DHT22;19370;48.562;9.196;2024-01-11T06:01:24;-2.90;99.90
33011;DHT22;19370;48.562;9.196;2024-01-11T06:03:49;-2.90;99.90
33011;DHT22;19370;48.562;9.196;2024-01-11T06:06:15;-2.90;99.90
33011;DHT22;19370;48.562;9.196;2024-01-11T06:08:40;-2.90;99.90
33011;DHT22;19370;48.562;9.196;2024-01-11T06:11:08;-3.00;99.90
33011;DHT22;19370;48.562;9.196;2024-01-11T06:13:33;-2.90;99.90
33011;DHT22;19370;48.562;9.196;2024-01-11T06:16:00;-3.00;99.90
33011;DHT22;19370;48.562;9.196;2024-01-11T06:18:25;-3.00;99.90
33011;DHT22;19370;48.562;9.196;2024-01-11T06:20:51;-3.00;99.90
33011;DHT22;19370;48.562;9.196;2024-01-11T06:23:16;-3.00;99.90
33011;DHT22;19370;48.562;9.196;2024-01-11T06:25:43;-3.00;99.90
33011;DHT22;19370;48.562;9.196;2024-01-11T06:28:10;-2.90;99.90
33011;DHT22;19370;48.562;9.196;2024-01-11T06:30:36;-3.00;99.90
33011;DHT22;19370;48.562;9.196;2024-01-11T06:33:02;-3.10;99.90
33011;DHT22;19370;48.562;9.196;2024-01-11T06:35:28;-3.00;99.90
33011;DHT22;19370;48.562;9.196;2024-01-11T06:37:54;-3.00;99.90
33011;DHT22;19370;48.562;9.196;2024-01-11T06:40:19;-3.00;99.90
33011;DHT22;19370;48.562;9.196;2024-01-11T06:42:45;-3.00;99.90
33011;DHT22;19370;48.562;9.196;2024-01-11T06:45:10;-3.00;99.90
33011;DHT22;19370;48.562;9.196;2024-01-11T06:47:36;-3.00;99.90
33011;DHT22;19370;48.562;9.196;2024-01-11T06:50:02;-3.00;99.90
33011;DHT22;19370;48.562;9.196;2024-01-11T06:52:28;-3.00;99.90
33011;DHT22;19370;48.562;9.196;2024-01-11T06:54:54;-3.00;99.90
33011;DHT22;19370;48.562;9.196;2024-01-11T06:57:19;-3.00;99.90
33011;DHT22;19370;48.562;9.196;2024-01-11T06:59:45;-3.00;99.90
33011;DHT22;19370;48.562;9.196;2024-01-11T07:02:11;-3.00;99.90
33011;DHT22;19370;48.562;9.196;2024-01-11T07:04:37;-3.00;99.90
33011;DHT22;19370;48.562;9.196;2024-01-11T07:07:03;-3.00;99.90
33011;DHT22;19370;48.562;9.196;2024-01-11T07:09:29;-3.00;99.90
33011;DHT22;19370;48.562;9.196;2024-01-11T07:11:55;-3.00;99.90
33011;DHT22;19370;48.562;9.196;2024-01-11T07:14:21;-3.00;99.90
33011;DHT22;19370;48.562;9.196;2024-01-11T07:16:46;-2.90;99.90
33011;DHT22;19370;48.562;9.196;2024-01-11T07:19:12;-2.90;99.90
33011;DHT22;19370;48.562;9.196;2024-01-11T07:21:37;-2.90;99.90
33011;DHT22;19370;48.562;9.196;2024-01-11T07:24:03;-3.00;99.90
33011;DHT22;19370;48.562;9.196;2024-01-11T07:26:29;-3.00;99.90
33011;DHT22;19370;48.562;9.196;2024-01-11T07:28:54;-3.00;99.90
33011;DHT22;19370;48.562;9.196;2024-01-11T07:31:20;-3.00;99.90
33011;DHT22;19370;48.562;9.196;2024-01-11T07:33:46;-3.00;99.90
33011;DHT22;19370;48.562;9.196;2024-01-11T07:36:11;-2.90;99.90
33011;DHT22;19370;48.562;9.196;2024-01-11T07:38:37;-3.00;99.90
33011;DHT22;19370;48.562;9.196;2024-01-11T07:41:03;-3.00;99.90
33011;DHT22;19370;48.562;9.196;2024-01-11T07:43:28;-3.00;99.90
33011;DHT22;19370;48.562;9.196;2024-01-11T07:45:55;-2.90;99.90
33011;DHT22;19370;48.562;9.196;2024-01-11T07:48:22;-2.90;99.90
33011;DHT22;19370;48.562;9.196;2024-01-11T07:50:49;-2.90;99.90
33011;DHT22;19370;48.562;9.196;2024-01-11T07:53:15;-2.90;99.90
33011;DHT22;19370;48.562;9.196;2024-01-11T07:55:47;-2.90;99.90
33011;DHT22;19370;48.562;9.196;2024-01-11T07:58:13;-3.00;99.90
33011;DHT22;19370;48.562;9.196;2024-01-11T08:00:41;-3.10;99.90
33011;DHT22;19370;48.562;9.196;2024-01-11T08:03:06;-3.00;99.90
33011;DHT22;19370;48.562;9.196;2024-01-11T08:05:34;-3.00;99.90
33011;DHT22;19370;48.562;9.196;2024-01-11T08:07:59;-2.90;99.90
33011;DHT22;19370;48.562;9.196;2024-01-11T08:10:29;-3.00;99.90
33011;DHT22;19370;48.562;9.196;2024-01-11T08:12:58;-2.90;99.90
33011;DHT22;19370;48.562;9.196;2024-01-11T08:15:25;-2.80;99.90
33011;DHT22;19370;48.562;9.196;2024-01-11T08:17:50;-2.80;99.90
33011;DHT22;19370;48.562;9.196;2024-01-11T08:20:16;-2.70;99.90
33011;DHT22;19370;48.562;9.196;2024-01-11T08:22:42;-2.70;99.90
33011;DHT22;19370;48.562;9.196;2024-01-11T08:25:09;-2.60;99.90
33011;DHT22;19370;48.562;9.196;2024-01-11T08:27:37;-2.50;99.90
33011;DHT22;19370;48.562;9.196;2024-01-11T08:30:03;-2.60;99.90
33011;DHT22;19370;48.562;9.196;2024-01-11T08:32:30;-2.60;99.90
33011;DHT22;19370;48.562;9.196;2024-01-11T08:34:57;-2.60;99.90
33011;DHT22;19370;48.562;9.196;2024-01-11T08:37:22;-2.60;99.90
33011;DHT22;19370;48.562;9.196;2024-01-11T08:39:48;-2.50;99.90
33011;DHT22;19370;48.562;9.196;2024-01-11T08:42:14;-2.40;99.90
33011;DHT22;19370;48.562;9.196;2024-01-11T08:44:43;-2.30;99.90
33011;DHT22;19370;48.562;9.196;2024-01-11T08:47:09;-2.20;99.90
33011;DHT22;19370;48.562;9.196;2024-01-11T08:49:36;-2.10;99.90
33011;DHT22;19370;48.562;9.196;2024-01-11T08:52:03;-2.20;99.90
33011;DHT22;19370;48.562;9.196;2024-01-11T08:54:33;-2.20;99.90
33011;DHT22;19370;48.562;9.196;2024-01-11T08:56:59;-2.30;99.90
33011;DHT22;19370;48.562;9.196;2024-01-11T08:59:24;-2.20;99.90
33011;DHT22;19370;48.562;9.196;2024-01-11T09:01:54;-2.10;99.90
33011;DHT22;19370;48.562;9.196;2024-01-11T09:04:20;-2.00;99.90
33011;DHT22;19370;48.562;9.196;2024-01-11T09:06:45;-1.90;99.90
33011;DHT22;19370;48.562;9.196;2024-01-11T09:09:11;-1.80;99.90
33011;DHT22;19370;48.562;9.196;2024-01-11T09:11:39;-1.70;99.90
33011;DHT22;19370;48.562;9.196;2024-01-11T09:14:05;-1.60;99.90
33011;DHT22;19370;48.562;9.196;2024-01-11T09:16:32;-1.70;99.90
33011;DHT22;19370;48.562;9.196;2024-01-11T09:18:58;-1.70;99.90
33011;DHT22;19370;48.562;9.196;2024-01-11T09:21:26;-1.70;99.90
33011;DHT22;19370;48.562;9.196;2024-01-11T09:23:51;-1.60;99.90
33011;DHT22;19370;48.562;9.196;2024-01-11T09:26:17;-1.60;99.90
33011;DHT22;19370;48.562;9.196;2024-01-11T09:28:42;-1.60;99.90
33011;DHT22;19370;48.562;9.196;2024-01-11T09:31:08;-1.60;99.90
33011;DHT22;19370;48.562;9.196;2024-01-11T09:33:34;-1.50;99.90
33011;DHT22;19370;48.562;9.196;2024-01-11T09:36:13;-1.50;99.90
33011;DHT22;19370;48.562;9.196;2024-01-11T09:38:41;-1.50;99.90
33011;DHT22;19370;48.562;9.196;2024-01-11T09:41:22;-1.50;99.90
33011;DHT22;19370;48.562;9.196;2024-01-11T09:44:55;-1.40;99.90
33011;DHT22;19370;48.562;9.196;2024-01-11T09:48:03;-1.50;99.90
33011;DHT22;19370;48.562;9.196;2024-01-11T09:50:49;-1.50;99.90
33011;DHT22;19370;48.562;9.196;2024-01-11T09:53:17;-1.40;99.90
33011;DHT22;19370;48.562;9.196;2024-01-11T09:55:48;-1.30;99.90
33011;DHT22;19370;48.562;9.196;2024-01-11T09:58:14;-1.20;99.90
33011;DHT22;19370;48.562;9.196;2024-01-11T10:00:41;-1.40;99.90
33011;DHT22;19370;48.562;9.196;2024-01-11T10:03:07;-1.30;99.90
33011;DHT22;19370;48.562;9.196;2024-01-11T10:05:34;-1.30;99.90
33011;DHT22;19370;48.562;9.196;2024-01-11T10:08:01;-1.20;99.90
33011;DHT22;19370;48.562;9.196;2024-01-11T10:10:28;-1.10;99.90
33011;DHT22;19370;48.562;9.196;2024-01-11T10:12:54;-1.00;99.90
33011;DHT22;19370;48.562;9.196;2024-01-11T10:15:24;-0.90;99.90
33011;DHT22;19370;48.562;9.196;2024-01-11T10:17:58;-0.70;99.90
33011;DHT22;19370;48.562;9.196;2024-01-11T10:20:23;-0.80;99.90
33011;DHT22;19370;48.562;9.196;2024-01-11T10:22:49;-0.70;99.90
33011;DHT22;19370;48.562;9.196;2024-01-11T10:25:16;-0.40;99.90
33011;DHT22;19370;48.562;9.196;2024-01-11T10:27:44;0.10;99.90
33011;DHT22;19370;48.562;9.196;2024-01-11T10:30:11;0.20;99.90
33011;DHT22;19370;48.562;9.196;2024-01-11T10:32:45;0.40;99.90
33011;DHT22;19370;48.562;9.196;2024-01-11T10:35:28;0.60;99.90
33011;DHT22;19370;48.562;9.196;2024-01-11T10:38:10;1.00;99.90
33011;DHT22;19370;48.562;9.196;2024-01-11T10:40:36;1.40;99.90
33011;DHT22;19370;48.562;9.196;2024-01-11T10:43:02;1.60;99.90
33011;DHT22;19370;48.562;9.196;2024-01-11T10:45:31;1.50;99.90
33011;DHT22;19370;48.562;9.196;2024-01-11T10:48:06;1.90;99.90
33011;DHT22;19370;48.562;9.196;2024-01-11T10:50:36;2.00;99.90
33011;DHT22;19370;48.562;9.196;2024-01-11T10:53:10;2.20;99.90
33011;DHT22;19370;48.562;9.196;2024-01-11T10:55:38;2.20;99.90
33011;DHT22;19370;48.562;9.196;2024-01-11T10:58:07;2.10;99.90
33011;DHT22;19370;48.562;9.196;2024-01-11T11:00:37;2.20;99.90
33011;DHT22;19370;48.562;9.196;2024-01-11T11:03:05;2.20;99.90
33011;DHT22;19370;48.562;9.196;2024-01-11T11:05:32;2.50;99.90
33011;DHT22;19370;48.562;9.196;2024-01-11T11:08:01;2.40;99.90
33011;DHT22;19370;48.562;9.196;2024-01-11T11:10:28;2.40;99.90
33011;DHT22;19370;48.562;9.196;2024-01-11T11:12:55;2.50;99.90
33011;DHT22;19370;48.562;9.196;2024-01-11T11:15:24;2.80;99.90
33011;DHT22;19370;48.562;9.196;2024-01-11T11:17:49;3.20;99.90
33011;DHT22;19370;48.562;9.196;2024-01-11T11:20:15;3.50;99.90
33011;DHT22;19370;48.562;9.196;2024-01-11T11:22:43;3.80;99.90
33011;DHT22;19370;48.562;9.196;2024-01-11T11:25:29;3.90;99.90
33011;DHT22;19370;48.562;9.196;2024-01-11T11:27:55;4.00;99.90
33011;DHT22;19370;48.562;9.196;2024-01-11T11:30:21;4.00;99.80
33011;DHT22;19370;48.562;9.196;2024-01-11T11:32:47;4.40;99.60
33011;DHT22;19370;48.562;9.196;2024-01-11T11:35:13;4.90;99.00
33011;DHT22;19370;48.562;9.196;2024-01-11T11:37:53;4.80;98.80
33011;DHT22;19370;48.562;9.196;2024-01-11T11:40:32;5.30;98.00
33011;DHT22;19370;48.562;9.196;2024-01-11T11:43:01;5.90;96.00
33011;DHT22;19370;48.562;9.196;2024-01-11T11:45:28;6.00;95.40
33011;DHT22;19370;48.562;9.196;2024-01-11T11:47:54;5.90;94.80
33011;DHT22;19370;48.562;9.196;2024-01-11T11:50:22;6.30;94.70
33011;DHT22;19370;48.562;9.196;2024-01-11T11:52:56;6.10;93.90
33011;DHT22;19370;48.562;9.196;2024-01-11T11:55:32;6.20;94.20
33011;DHT22;19370;48.562;9.196;2024-01-11T11:58:03;6.60;93.60
33011;DHT22;19370;48.562;9.196;2024-01-11T12:00:29;7.00;92.90
33011;DHT22;19370;48.562;9.196;2024-01-11T12:03:02;6.70;92.40
33011;DHT22;19370;48.562;9.196;2024-01-11T12:05:29;6.40;93.20
33011;DHT22;19370;48.562;9.196;2024-01-11T12:07:58;6.60;92.40
33011;DHT22;19370;48.562;9.196;2024-01-11T12:10:32;6.70;91.90
33011;DHT22;19370;48.562;9.196;2024-01-11T12:13:03;6.80;92.10
33011;DHT22;19370;48.562;9.196;2024-01-11T12:15:29;6.60;92.10
33011;DHT22;19370;48.562;9.196;2024-01-11T12:17:58;6.60;92.30
33011;DHT22;19370;48.562;9.196;2024-01-11T12:20:29;6.80;91.70
33011;DHT22;19370;48.562;9.196;2024-01-11T12:22:54;6.90;91.70
33011;DHT22;19370;48.562;9.196;2024-01-11T12:25:21;7.00;91.00
33011;DHT22;19370;48.562;9.196;2024-01-11T12:27:51;7.10;91.20
33011;DHT22;19370;48.562;9.196;2024-01-11T12:30:26;7.40;90.80
33011;DHT22;19370;48.562;9.196;2024-01-11T12:32:55;7.30;90.20
33011;DHT22;19370;48.562;9.196;2024-01-11T12:35:23;7.20;90.40
33011;DHT22;19370;48.562;9.196;2024-01-11T12:38:04;6.90;91.10
33011;DHT22;19370;48.562;9.196;2024-01-11T12:40:37;6.40;92.00
33011;DHT22;19370;48.562;9.196;2024-01-11T12:43:06;6.60;91.80
33011;DHT22;19370;48.562;9.196;2024-01-11T12:45:42;6.60;91.80
33011;DHT22;19370;48.562;9.196;2024-01-11T12:48:08;6.90;91.50
33011;DHT22;19370;48.562;9.196;2024-01-11T12:50:40;7.20;90.80
33011;DHT22;19370;48.562;9.196;2024-01-11T12:53:19;7.20;90.80
33011;DHT22;19370;48.562;9.196;2024-01-11T12:55:45;7.70;89.00
33011;DHT22;19370;48.562;9.196;2024-01-11T12:58:11;8.10;88.20
33011;DHT22;19370;48.562;9.196;2024-01-11T13:00:37;8.40;86.60
33011;DHT22;19370;48.562;9.196;2024-01-11T13:03:24;8.10;87.40
33011;DHT22;19370;48.562;9.196;2024-01-11T13:05:51;7.70;88.30
33011;DHT22;19370;48.562;9.196;2024-01-11T13:08:17;7.80;88.70
33011;DHT22;19370;48.562;9.196;2024-01-11T13:10:43;7.70;88.50
33011;DHT22;19370;48.562;9.196;2024-01-11T13:13:11;7.90;87.90
33011;DHT22;19370;48.562;9.196;2024-01-11T13:15:36;7.60;89.10
33011;DHT22;19370;48.562;9.196;2024-01-11T13:18:02;7.30;88.20
33011;DHT22;19370;48.562;9.196;2024-01-11T13:20:29;7.20;88.40
33011;DHT22;19370;48.562;9.196;2024-01-11T13:23:16;7.30;88.80
33011;DHT22;19370;48.562;9.196;2024-01-11T13:25:47;7.20;88.00
33011;DHT22;19370;48.562;9.196;2024-01-11T13:28:16;7.00;89.30
33011;DHT22;19370;48.562;9.196;2024-01-11T13:30:46;6.80;90.20
33011;DHT22;19370;48.562;9.196;2024-01-11T13:33:12;6.40;90.30
33011;DHT22;19370;48.562;9.196;2024-01-11T13:35:39;6.40;90.60
33011;DHT22;19370;48.562;9.196;2024-01-11T13:38:06;6.40;91.10
33011;DHT22;19370;48.562;9.196;2024-01-11T13:40:32;6.20;91.50
33011;DHT22;19370;48.562;9.196;2024-01-11T13:43:02;5.90;91.60
33011;DHT22;19370;48.562;9.196;2024-01-11T13:45:28;5.80;91.50
33011;DHT22;19370;48.562;9.196;2024-01-11T13:47:57;5.90;91.60
33011;DHT22;19370;48.562;9.196;2024-01-11T13:50:23;5.70;92.00
33011;DHT22;19370;48.562;9.196;2024-01-11T13:52:52;5.60;92.40
33011;DHT22;19370;48.562;9.196;2024-01-11T13:55:22;5.60;92.60
33011;DHT22;19370;48.562;9.196;2024-01-11T13:57:51;5.30;92.50
33011;DHT22;19370;48.562;9.196;2024-01-11T14:00:18;5.20;92.50
33011;DHT22;19370;48.562;9.196;2024-01-11T14:02:45;5.20;92.90
33011;DHT22;19370;48.562;9.196;2024-01-11T14:05:11;5.10;92.80
33011;DHT22;19370;48.562;9.196;2024-01-11T14:07:55;5.20;93.30
33011;DHT22;19370;48.562;9.196;2024-01-11T14:10:28;5.00;93.00
33011;DHT22;19370;48.562;9.196;2024-01-11T14:12:54;5.40;92.90
33011;DHT22;19370;48.562;9.196;2024-01-11T14:15:19;5.60;92.40
33011;DHT22;19370;48.562;9.196;2024-01-11T14:17:50;5.70;92.20
33011;DHT22;19370;48.562;9.196;2024-01-11T14:20:19;5.80;92.20
33011;DHT22;19370;48.562;9.196;2024-01-11T14:22:50;5.90;92.00
33011;DHT22;19370;48.562;9.196;2024-01-11T14:25:20;6.00;91.60
33011;DHT22;19370;48.562;9.196;2024-01-11T14:27:48;5.90;91.80
33011;DHT22;19370;48.562;9.196;2024-01-11T14:30:16;5.90;91.50
33011;DHT22;19370;48.562;9.196;2024-01-11T14:32:45;6.00;91.30
33011;DHT22;19370;48.562;9.196;2024-01-11T14:35:11;5.80;91.50
33011;DHT22;19370;48.562;9.196;2024-01-11T14:37:40;5.30;92.00
33011;DHT22;19370;48.562;9.196;2024-01-11T14:40:09;5.10;92.40
33011;DHT22;19370;48.562;9.196;2024-01-11T14:42:44;4.80;92.70
33011;DHT22;19370;48.562;9.196;2024-01-11T14:45:10;4.50;93.30
33011;DHT22;19370;48.562;9.196;2024-01-11T14:47:35;4.00;94.20
33011;DHT22;19370;48.562;9.196;2024-01-11T14:50:01;3.70;94.90
33011;DHT22;19370;48.562;9.196;2024-01-11T14:52:30;3.40;95.40
33011;DHT22;19370;48.562;9.196;2024-01-11T14:54:58;3.30;95.80
33011;DHT22;19370;48.562;9.196;2024-01-11T14:57:24;3.10;96.10
33011;DHT22;19370;48.562;9.196;2024-01-11T14:59:49;2.90;96.70
33011;DHT22;19370;48.562;9.196;2024-01-11T15:02:15;2.80;97.00
33011;DHT22;19370;48.562;9.196;2024-01-11T15:04:41;2.60;97.40
33011;DHT22;19370;48.562;9.196;2024-01-11T15:07:09;2.50;97.70
33011;DHT22;19370;48.562;9.196;2024-01-11T15:09:35;2.40;97.90
33011;DHT22;19370;48.562;9.196;2024-01-11T15:12:02;2.30;98.30
33011;DHT22;19370;48.562;9.196;2024-01-11T15:14:28;2.20;98.70
33011;DHT22;19370;48.562;9.196;2024-01-11T15:16:56;2.10;98.90
33011;DHT22;19370;48.562;9.196;2024-01-11T15:19:22;2.10;99.10
33011;DHT22;19370;48.562;9.196;2024-01-11T15:21:48;2.00;99.20
33011;DHT22;19370;48.562;9.196;2024-01-11T15:24:14;1.90;99.30
33011;DHT22;19370;48.562;9.196;2024-01-11T15:26:40;1.90;99.70
33011;DHT22;19370;48.562;9.196;2024-01-11T15:29:06;1.80;99.90
33011;DHT22;19370;48.562;9.196;2024-01-11T15:31:32;1.70;99.90
33011;DHT22;19370;48.562;9.196;2024-01-11T15:33:57;1.60;99.90
33011;DHT22;19370;48.562;9.196;2024-01-11T15:36:29;1.60;99.90
33011;DHT22;19370;48.562;9.196;2024-01-11T15:38:55;1.50;99.90
33011;DHT22;19370;48.562;9.196;2024-01-11T15:41:20;1.40;99.90
33011;DHT22;19370;48.562;9.196;2024-01-11T15:43:46;1.30;99.90
33011;DHT22;19370;48.562;9.196;2024-01-11T15:46:14;1.30;99.90
33011;DHT22;19370;48.562;9.196;2024-01-11T15:48:40;1.20;99.90
33011;DHT22;19370;48.562;9.196;2024-01-11T15:51:05;1.10;99.90
33011;DHT22;19370;48.562;9.196;2024-01-11T15:53:31;1.00;99.90
33011;DHT22;19370;48.562;9.196;2024-01-11T15:55:56;0.90;99.90
33011;DHT22;19370;48.562;9.196;2024-01-11T15:58:22;0.90;99.90
33011;DHT22;19370;48.562;9.196;2024-01-11T16:00:48;0.80;99.90
33011;DHT22;19370;48.562;9.196;2024-01-11T16:03:14;0.80;99.90
33011;DHT22;19370;48.562;9.196;2024-01-11T16:05:40;0.70;99.90
33011;DHT22;19370;48.562;9.196;2024-01-11T16:08:06;0.60;99.90
33011;DHT22;19370;48.562;9.196;2024-01-11T16:10:32;0.60;99.90
33011;DHT22;19370;48.562;9.196;2024-01-11T16:13:08;0.50;99.90
33011;DHT22;19370;48.562;9.196;2024-01-11T16:15:34;0.50;99.90
33011;DHT22;19370;48.562;9.196;2024-01-11T16:18:06;0.50;99.90
33011;DHT22;19370;48.562;9.196;2024-01-11T16:20:37;0.40;99.90
33011;DHT22;19370;48.562;9.196;2024-01-11T16:23:12;0.40;99.90
33011;DHT22;19370;48.562;9.196;2024-01-11T16:25:41;0.40;99.90
33011;DHT22;19370;48.562;9.196;2024-01-11T16:28:16;0.30;99.90
33011;DHT22;19370;48.562;9.196;2024-01-11T16:30:43;0.30;99.90
33011;DHT22;19370;48.562;9.196;2024-01-11T16:33:10;0.20;99.90
33011;DHT22;19370;48.562;9.196;2024-01-11T16:35:50;0.20;99.90
33011;DHT22;19370;48.562;9.196;2024-01-11T16:38:16;0.10;99.90
33011;DHT22;19370;48.562;9.196;2024-01-11T16:40:44;0.10;99.90
33011;DHT22;19370;48.562;9.196;2024-01-11T16:43:10;0.10;99.90
33011;DHT22;19370;48.562;9.196;2024-01-11T16:45:36;0.10;99.90
33011;DHT22;19370;48.562;9.196;2024-01-11T16:48:03;0.00;99.90
33011;DHT22;19370;48.562;9.196;2024-01-11T16:50:32;0.00;99.90
33011;DHT22;19370;48.562;9.196;2024-01-11T16:52:58;0.00;99.90
33011;DHT22;19370;48.562;9.196;2024-01-11T16:55:24;0.00;99.90
33011;DHT22;19370;48.562;9.196;2024-01-11T16:57:50;0.00;99.90
33011;DHT22;19370;48.562;9.196;2024-01-11T17:00:18;-0.10;99.90
33011;DHT22;19370;48.562;9.196;2024-01-11T17:02:45;0.00;99.90
33011;DHT22;19370;48.562;9.196;2024-01-11T17:05:18;-0.10;99.90
33011;DHT22;19370;48.562;9.196;2024-01-11T17:07:46;-0.10;99.90
33011;DHT22;19370;48.562;9.196;2024-01-11T17:10:12;-0.20;99.90
33011;DHT22;19370;48.562;9.196;2024-01-11T17:12:37;-0.20;99.90
33011;DHT22;19370;48.562;9.196;2024-01-11T17:15:03;-0.20;99.90
33011;DHT22;19370;48.562;9.196;2024-01-11T17:17:29;-0.20;99.90
33011;DHT22;19370;48.562;9.196;2024-01-11T17:20:10;-0.20;99.90
33011;DHT22;19370;48.562;9.196;2024-01-11T17:22:36;-0.20;99.90
33011;DHT22;19370;48.562;9.196;2024-01-11T17:25:02;-0.30;99.90
33011;DHT22;19370;48.562;9.196;2024-01-11T17:27:37;-0.40;99.90
33011;DHT22;19370;48.562;9.196;2024-01-11T17:30:03;-0.40;99.90
33011;DHT22;19370;48.562;9.196;2024-01-11T17:32:29;-0.40;99.90
33011;DHT22;19370;48.562;9.196;2024-01-11T17:35:02;-0.30;99.90
33011;DHT22;19370;48.562;9.196;2024-01-11T17:37:29;-0.30;99.90
33011;DHT22;19370;48.562;9.196;2024-01-11T17:39:54;-0.30;99.90
33011;DHT22;19370;48.562;9.196;2024-01-11T17:42:40;-0.30;99.90
33011;DHT22;19370;48.562;9.196;2024-01-11T17:45:15;-0.40;99.90
33011;DHT22;19370;48.562;9.196;2024-01-11T17:47:47;-0.40;99.90
33011;DHT22;19370;48.562;9.196;2024-01-11T17:50:13;-0.40;99.90
33011;DHT22;19370;48.562;9.196;2024-01-11T17:52:39;-0.50;99.90
33011;DHT22;19370;48.562;9.196;2024-01-11T17:55:07;-0.50;99.90
33011;DHT22;19370;48.562;9.196;2024-01-11T17:57:42;-0.50;99.90
33011;DHT22;19370;48.562;9.196;2024-01-11T18:00:17;-0.50;99.90
33011;DHT22;19370;48.562;9.196;2024-01-11T18:02:43;-0.50;99.90
33011;DHT22;19370;48.562;9.196;2024-01-11T18:05:11;-0.60;99.90
33011;DHT22;19370;48.562;9.196;2024-01-11T18:07:38;-0.60;99.90
33011;DHT22;19370;48.562;9.196;2024-01-11T18:10:04;-0.60;99.90
33011;DHT22;19370;48.562;9.196;2024-01-11T18:12:34;-0.70;99.90
33011;DHT22;19370;48.562;9.196;2024-01-11T18:15:00;-0.70;99.90
33011;DHT22;19370;48.562;9.196;2024-01-11T18:17:40;-0.70;99.90
33011;DHT22;19370;48.562;9.196;2024-01-11T18:20:09;-0.80;99.90
33011;DHT22;19370;48.562;9.196;2024-01-11T18:22:35;-0.70;99.90
33011;DHT22;19370;48.562;9.196;2024-01-11T18:25:02;-0.70;99.90
33011;DHT22;19370;48.562;9.196;2024-01-11T18:27:27;-0.80;99.90
33011;DHT22;19370;48.562;9.196;2024-01-11T18:29:53;-0.70;99.90
33011;DHT22;19370;48.562;9.196;2024-01-11T18:32:19;-0.80;99.90
33011;DHT22;19370;48.562;9.196;2024-01-11T18:34:45;-0.70;99.90
33011;DHT22;19370;48.562;9.196;2024-01-11T18:37:11;-0.70;99.90
33011;DHT22;19370;48.562;9.196;2024-01-11T18:39:40;-0.80;99.90
33011;DHT22;19370;48.562;9.196;2024-01-11T18:42:07;-0.80;99.90
33011;DHT22;19370;48.562;9.196;2024-01-11T18:44:35;-0.80;99.90
33011;DHT22;19370;48.562;9.196;2024-01-11T18:47:01;-0.90;99.90
33011;DHT22;19370;48.562;9.196;2024-01-11T18:49:26;-0.90;99.90
33011;DHT22;19370;48.562;9.196;2024-01-11T18:51:52;-0.90;99.90
33011;DHT22;19370;48.562;9.196;2024-01-11T18:54:17;-0.90;99.90
33011;DHT22;19370;48.562;9.196;2024-01-11T18:56:43;-0.90;99.90
33011;DHT22;19370;48.562;9.196;2024-01-11T18:59:09;-0.90;99.90
33011;DHT22;19370;48.562;9.196;2024-01-11T19:01:34;-0.90;99.90